sensor_id;sensor_type;location;lat;lon;timestamp;temperature;humidity
45115;DHT22;30877;43.706;10.780;2022-11-20T00:01:09;12.40;96.70
45115;DHT22;30877;43.706;10.780;2022-11-20T00:03:37;12.40;96.70
45115;DHT22;30877;43.706;10.780;2022-11-20T00:06:08;12.40;96.70
45115;DHT22;30877;43.706;10.780;2022-11-20T00:08:37;12.40;96.70
45115;DHT22;30877;43.706;10.780;2022-11-20T00:11:06;12.40;96.70
45115;DHT22;30877;43.706;10.780;2022-11-20T00:13:41;12.40;96.70
45115;DHT22;30877;43.706;10.780;2022-11-20T00:16:12;12.40;96.70
45115;DHT22;30877;43.706;10.780;2022-11-20T00:18:40;12.40;96.70
45115;DHT22;30877;43.706;10.780;2022-11-20T00:21:13;12.40;96.70
45115;DHT22;30877;43.706;10.780;2022-11-20T00:23:41;12.40;96.70
45115;DHT22;30877;43.706;10.780;2022-11-20T00:26:11;12.40;96.70
45115;DHT22;30877;43.706;10.780;2022-11-20T00:28:40;12.40;96.70
45115;DHT22;30877;43.706;10.780;2022-11-20T00:31:11;12.30;96.70
45115;DHT22;30877;43.706;10.780;2022-11-20T00:33:39;12.30;96.70
45115;DHT22;30877;43.706;10.780;2022-11-20T00:36:09;12.30;96.70
45115;DHT22;30877;43.706;10.780;2022-11-20T00:38:38;12.30;96.70
45115;DHT22;30877;43.706;10.780;2022-11-20T00:41:07;12.30;96.70
45115;DHT22;30877;43.706;10.780;2022-11-20T00:43:36;12.30;96.70
45115;DHT22;30877;43.706;10.780;2022-11-20T00:46:06;12.30;96.70
45115;DHT22;30877;43.706;10.780;2022-11-20T00:48:36;12.20;96.70
45115;DHT22;30877;43.706;10.780;2022-11-20T00:51:04;12.20;96.70
45115;DHT22;30877;43.706;10.780;2022-11-20T00:53:32;12.20;96.70
45115;DHT22;30877;43.706;10.780;2022-11-20T00:56:02;12.20;96.70
45115;DHT22;30877;43.706;10.780;2022-11-20T00:58:31;12.20;96.70
45115;DHT22;30877;43.706;10.780;2022-11-20T01:01:04;12.20;96.70
45115;DHT22;30877;43.706;10.780;2022-11-20T01:03:33;12.30;96.70
45115;DHT22;30877;43.706;10.780;2022-11-20T01:06:03;12.20;96.70
45115;DHT22;30877;43.706;10.780;2022-11-20T01:08:32;12.20;96.70
45115;DHT22;30877;43.706;10.780;2022-11-20T01:11:01;12.20;96.70
45115;DHT22;30877;43.706;10.780;2022-11-20T01:13:30;12.20;96.70
45115;DHT22;30877;43.706;10.780;2022-11-20T01:16:05;12.20;96.70
45115;DHT22;30877;43.706;10.780;2022-11-20T01:18:34;12.30;96.70
45115;DHT22;30877;43.706;10.780;2022-11-20T01:21:07;12.30;96.70
45115;DHT22;30877;43.706;10.780;2022-11-20T01:23:36;12.30;96.70
45115;DHT22;30877;43.706;10.780;2022-11-20T01:26:07;12.20;96.70
45115;DHT22;30877;43.706;10.780;2022-11-20T01:28:36;12.00;96.70
45115;DHT22;30877;43.706;10.780;2022-11-20T01:31:11;11.80;96.70
45115;DHT22;30877;43.706;10.780;2022-11-20T01:33:41;11.60;96.70
45115;DHT22;30877;43.706;10.780;2022-11-20T01:36:11;11.40;96.70
45115;DHT22;30877;43.706;10.780;2022-11-20T01:38:40;11.40;96.70
45115;DHT22;30877;43.706;10.780;2022-11-20T01:41:08;11.40;96.70
45115;DHT22;30877;43.706;10.780;2022-11-20T01:43:37;11.50;96.70
45115;DHT22;30877;43.706;10.780;2022-11-20T01:46:13;11.60;96.70
45115;DHT22;30877;43.706;10.780;2022-11-20T01:48:50;11.70;96.70
45115;DHT22;30877;43.706;10.780;2022-11-20T01:51:25;11.80;96.70
45115;DHT22;30877;43.706;10.780;2022-11-20T01:53:57;11.80;96.70
45115;DHT22;30877;43.706;10.780;2022-11-20T01:56:28;11.70;96.70
45115;DHT22;30877;43.706;10.780;2022-11-20T01:59:00;11.80;96.70
45115;DHT22;30877;43.706;10.780;2022-11-20T02:01:29;11.80;96.70
45115;DHT22;30877;43.706;10.780;2022-11-20T02:03:58;11.90;96.70
45115;DHT22;30877;43.706;10.780;2022-11-20T02:06:29;11.90;96.70
45115;DHT22;30877;43.706;10.780;2022-11-20T02:08:58;11.90;96.70
45115;DHT22;30877;43.706;10.780;2022-11-20T02:11:26;11.90;96.70
45115;DHT22;30877;43.706;10.780;2022-11-20T02:13:54;11.90;96.70
45115;DHT22;30877;43.706;10.780;2022-11-20T02:16:25;11.80;96.70
45115;DHT22;30877;43.706;10.780;2022-11-20T02:18:54;11.80;96.70
45115;DHT22;30877;43.706;10.780;2022-11-20T02:21:33;11.80;96.70
45115;DHT22;30877;43.706;10.780;2022-11-20T02:24:06;11.70;96.70
45115;DHT22;30877;43.706;10.780;2022-11-20T02:26:40;11.70;96.70
45115;DHT22;30877;43.706;10.780;2022-11-20T02:29:09;11.70;96.70
45115;DHT22;30877;43.706;10.780;2022-11-20T02:31:40;11.40;96.70
45115;DHT22;30877;43.706;10.780;2022-11-20T02:34:09;11.20;96.70
45115;DHT22;30877;43.706;10.780;2022-11-20T02:36:39;11.20;96.70
45115;DHT22;30877;43.706;10.780;2022-11-20T02:39:12;11.20;96.70
45115;DHT22;30877;43.706;10.780;2022-11-20T02:41:41;11.20;96.70
45115;DHT22;30877;43.706;10.780;2022-11-20T02:44:09;11.30;96.70
45115;DHT22;30877;43.706;10.780;2022-11-20T02:46:36;11.30;96.70
45115;DHT22;30877;43.706;10.780;2022-11-20T02:49:05;11.40;96.70
45115;DHT22;30877;43.706;10.780;2022-11-20T02:51:33;11.50;96.70
45115;DHT22;30877;43.706;10.780;2022-11-20T02:54:16;11.50;96.70
45115;DHT22;30877;43.706;10.780;2022-11-20T02:56:44;11.50;96.70
45115;DHT22;30877;43.706;10.780;2022-11-20T02:59:12;11.50;96.70
45115;DHT22;30877;43.706;10.780;2022-11-20T03:01:40;11.40;96.70
45115;DHT22;30877;43.706;10.780;2022-11-20T03:04:08;11.30;96.70
45115;DHT22;30877;43.706;10.780;2022-11-20T03:06:36;11.40;96.70
45115;DHT22;30877;43.706;10.780;2022-11-20T03:09:04;11.40;96.70
45115;DHT22;30877;43.706;10.780;2022-11-20T03:11:34;11.30;96.70
45115;DHT22;30877;43.706;10.780;2022-11-20T03:14:02;11.20;96.70
45115;DHT22;30877;43.706;10.780;2022-11-20T03:16:31;11.30;96.70
45115;DHT22;30877;43.706;10.780;2022-11-20T03:19:00;11.20;96.70
45115;DHT22;30877;43.706;10.780;2022-11-20T03:21:28;11.20;96.70
45115;DHT22;30877;43.706;10.780;2022-11-20T03:23:56;11.20;96.70
45115;DHT22;30877;43.706;10.780;2022-11-20T03:26:25;11.20;96.70
45115;DHT22;30877;43.706;10.780;2022-11-20T03:28:56;11.30;96.70
45115;DHT22;30877;43.706;10.780;2022-11-20T03:31:27;11.40;96.70
45115;DHT22;30877;43.706;10.780;2022-11-20T03:33:56;11.40;96.70
45115;DHT22;30877;43.706;10.780;2022-11-20T03:36:25;11.40;96.70
45115;DHT22;30877;43.706;10.780;2022-11-20T03:38:54;11.40;96.70
45115;DHT22;30877;43.706;10.780;2022-11-20T03:41:24;11.40;96.70
45115;DHT22;30877;43.706;10.780;2022-11-20T03:43:55;11.30;96.70
45115;DHT22;30877;43.706;10.780;2022-11-20T03:46:24;11.30;96.70
45115;DHT22;30877;43.706;10.780;2022-11-20T03:48:52;11.30;96.70
45115;DHT22;30877;43.706;10.780;2022-11-20T03:51:22;11.30;96.70
45115;DHT22;30877;43.706;10.780;2022-11-20T03:53:52;11.20;96.70
45115;DHT22;30877;43.706;10.780;2022-11-20T03:56:22;11.20;96.70
45115;DHT22;30877;43.706;10.780;2022-11-20T03:58:50;11.20;96.70
45115;DHT22;30877;43.706;10.780;2022-11-20T04:01:21;11.10;96.70
45115;DHT22;30877;43.706;10.780;2022-11-20T04:03:51;11.10;96.70
45115;DHT22;30877;43.706;10.780;2022-11-20T04:06:21;11.10;96.70
45115;DHT22;30877;43.706;10.780;2022-11-20T04:08:49;11.00;96.70
45115;DHT22;30877;43.706;10.780;2022-11-20T04:11:22;11.00;96.70
45115;DHT22;30877;43.706;10.780;2022-11-20T04:13:51;11.00;96.70
45115;DHT22;30877;43.706;10.780;2022-11-20T04:16:22;11.00;96.70
45115;DHT22;30877;43.706;10.780;2022-11-20T04:18:52;11.00;96.70
45115;DHT22;30877;43.706;10.780;2022-11-20T04:21:20;10.90;96.70
45115;DHT22;30877;43.706;10.780;2022-11-20T04:23:48;10.80;96.70
45115;DHT22;30877;43.706;10.780;2022-11-20T04:26:16;10.70;96.70
45115;DHT22;30877;43.706;10.780;2022-11-20T04:28:45;10.70;96.70
45115;DHT22;30877;43.706;10.780;2022-11-20T04:31:14;10.70;96.70
45115;DHT22;30877;43.706;10.780;2022-11-20T04:33:45;10.70;96.70
45115;DHT22;30877;43.706;10.780;2022-11-20T04:36:15;10.70;96.70
45115;DHT22;30877;43.706;10.780;2022-11-20T04:38:43;10.70;96.70
45115;DHT22;30877;43.706;10.780;2022-11-20T04:41:15;10.70;96.70
45115;DHT22;30877;43.706;10.780;2022-11-20T04:43:46;10.70;96.70
45115;DHT22;30877;43.706;10.780;2022-11-20T04:46:16;10.70;96.70
45115;DHT22;30877;43.706;10.780;2022-11-20T04:48:46;10.70;96.70
45115;DHT22;30877;43.706;10.780;2022-11-20T04:51:14;10.50;96.70
45115;DHT22;30877;43.706;10.780;2022-11-20T04:53:43;10.40;96.70
45115;DHT22;30877;43.706;10.780;2022-11-20T04:56:12;10.10;96.70
45115;DHT22;30877;43.706;10.780;2022-11-20T04:58:40;10.10;96.70
45115;DHT22;30877;43.706;10.780;2022-11-20T05:01:11;10.10;96.70
45115;DHT22;30877;43.706;10.780;2022-11-20T05:03:40;10.20;96.70
45115;DHT22;30877;43.706;10.780;2022-11-20T05:06:15;10.30;96.70
45115;DHT22;30877;43.706;10.780;2022-11-20T05:08:43;10.30;96.70
45115;DHT22;30877;43.706;10.780;2022-11-20T05:11:12;10.30;96.70
45115;DHT22;30877;43.706;10.780;2022-11-20T05:13:41;10.20;96.70
45115;DHT22;30877;43.706;10.780;2022-11-20T05:16:11;10.00;96.70
45115;DHT22;30877;43.706;10.780;2022-11-20T05:18:40;9.80;96.70
45115;DHT22;30877;43.706;10.780;2022-11-20T05:21:11;9.60;96.70
45115;DHT22;30877;43.706;10.780;2022-11-20T05:23:39;9.50;96.70
45115;DHT22;30877;43.706;10.780;2022-11-20T05:26:12;9.40;96.70
45115;DHT22;30877;43.706;10.780;2022-11-20T05:28:40;9.40;96.70
45115;DHT22;30877;43.706;10.780;2022-11-20T05:31:09;9.40;96.70
45115;DHT22;30877;43.706;10.780;2022-11-20T05:33:40;9.40;96.70
45115;DHT22;30877;43.706;10.780;2022-11-20T05:36:08;9.30;96.70
45115;DHT22;30877;43.706;10.780;2022-11-20T05:38:39;9.60;96.70
45115;DHT22;30877;43.706;10.780;2022-11-20T05:41:08;9.80;96.70
45115;DHT22;30877;43.706;10.780;2022-11-20T05:43:38;9.80;96.70
45115;DHT22;30877;43.706;10.780;2022-11-20T05:46:07;9.80;96.70
45115;DHT22;30877;43.706;10.780;2022-11-20T05:48:36;10.00;96.70
45115;DHT22;30877;43.706;10.780;2022-11-20T05:51:05;10.10;96.70
45115;DHT22;30877;43.706;10.780;2022-11-20T05:53:34;10.10;96.70
45115;DHT22;30877;43.706;10.780;2022-11-20T05:56:06;10.10;96.70
45115;DHT22;30877;43.706;10.780;2022-11-20T05:58:34;10.10;96.70
45115;DHT22;30877;43.706;10.780;2022-11-20T06:01:07;10.10;96.70
45115;DHT22;30877;43.706;10.780;2022-11-20T06:03:36;10.10;96.70
45115;DHT22;30877;43.706;10.780;2022-11-20T06:06:04;10.10;96.70
45115;DHT22;30877;43.706;10.780;2022-11-20T06:08:33;10.10;96.70
45115;DHT22;30877;43.706;10.780;2022-11-20T06:11:05;10.10;96.70
45115;DHT22;30877;43.706;10.780;2022-11-20T06:13:34;10.10;96.70
45115;DHT22;30877;43.706;10.780;2022-11-20T06:16:08;10.10;96.70
45115;DHT22;30877;43.706;10.780;2022-11-20T06:18:37;10.10;96.70
45115;DHT22;30877;43.706;10.780;2022-11-20T06:21:06;10.00;96.70
45115;DHT22;30877;43.706;10.780;2022-11-20T06:23:35;10.00;96.70
45115;DHT22;30877;43.706;10.780;2022-11-20T06:26:06;10.00;96.70
45115;DHT22;30877;43.706;10.780;2022-11-20T06:28:34;10.00;96.70
45115;DHT22;30877;43.706;10.780;2022-11-20T06:31:02;10.10;96.70
45115;DHT22;30877;43.706;10.780;2022-11-20T06:33:30;10.00;96.70
45115;DHT22;30877;43.706;10.780;2022-11-20T06:35:59;10.00;96.70
45115;DHT22;30877;43.706;10.780;2022-11-20T06:38:33;9.90;96.70
45115;DHT22;30877;43.706;10.780;2022-11-20T06:41:01;9.80;96.70
45115;DHT22;30877;43.706;10.780;2022-11-20T06:43:32;9.80;96.70
45115;DHT22;30877;43.706;10.780;2022-11-20T06:45:59;9.80;96.70
45115;DHT22;30877;43.706;10.780;2022-11-20T06:48:28;9.80;96.70
45115;DHT22;30877;43.706;10.780;2022-11-20T06:50:56;9.80;96.70
45115;DHT22;30877;43.706;10.780;2022-11-20T06:53:24;9.90;96.70
45115;DHT22;30877;43.706;10.780;2022-11-20T06:55:52;9.90;96.70
45115;DHT22;30877;43.706;10.780;2022-11-20T06:58:23;9.80;96.70
45115;DHT22;30877;43.706;10.780;2022-11-20T07:00:52;9.90;96.70
45115;DHT22;30877;43.706;10.780;2022-11-20T07:03:20;9.80;96.70
45115;DHT22;30877;43.706;10.780;2022-11-20T07:05:48;9.70;96.70
45115;DHT22;30877;43.706;10.780;2022-11-20T07:08:16;9.70;96.70
45115;DHT22;30877;43.706;10.780;2022-11-20T07:10:44;9.90;96.70
45115;DHT22;30877;43.706;10.780;2022-11-20T07:13:12;10.00;96.70
45115;DHT22;30877;43.706;10.780;2022-11-20T07:15:39;9.80;96.70
45115;DHT22;30877;43.706;10.780;2022-11-20T07:18:09;9.80;96.70
45115;DHT22;30877;43.706;10.780;2022-11-20T07:20:37;9.90;96.70
45115;DHT22;30877;43.706;10.780;2022-11-20T07:23:05;9.90;96.70
45115;DHT22;30877;43.706;10.780;2022-11-20T07:25:33;10.00;96.70
45115;DHT22;30877;43.706;10.780;2022-11-20T07:28:01;10.00;96.70
45115;DHT22;30877;43.706;10.780;2022-11-20T07:30:29;9.90;96.70
45115;DHT22;30877;43.706;10.780;2022-11-20T07:32:57;9.90;96.70
45115;DHT22;30877;43.706;10.780;2022-11-20T07:35:27;10.10;96.70
45115;DHT22;30877;43.706;10.780;2022-11-20T07:37:55;10.10;96.70
45115;DHT22;30877;43.706;10.780;2022-11-20T07:40:22;10.20;96.70
45115;DHT22;30877;43.706;10.780;2022-11-20T07:42:51;10.30;96.70
45115;DHT22;30877;43.706;10.780;2022-11-20T07:45:22;10.30;96.70
45115;DHT22;30877;43.706;10.780;2022-11-20T07:47:50;10.40;96.70
45115;DHT22;30877;43.706;10.780;2022-11-20T07:50:18;10.40;96.70
45115;DHT22;30877;43.706;10.780;2022-11-20T07:52:48;10.40;96.70
45115;DHT22;30877;43.706;10.780;2022-11-20T07:55:16;10.60;96.70
45115;DHT22;30877;43.706;10.780;2022-11-20T07:57:44;10.60;96.70
45115;DHT22;30877;43.706;10.780;2022-11-20T08:00:13;10.50;96.70
45115;DHT22;30877;43.706;10.780;2022-11-20T08:02:41;10.40;96.70
45115;DHT22;30877;43.706;10.780;2022-11-20T08:05:09;10.30;96.70
45115;DHT22;30877;43.706;10.780;2022-11-20T08:07:38;10.30;96.70
45115;DHT22;30877;43.706;10.780;2022-11-20T08:10:09;10.40;96.70
45115;DHT22;30877;43.706;10.780;2022-11-20T08:12:44;10.50;96.70
45115;DHT22;30877;43.706;10.780;2022-11-20T08:15:30;10.30;96.70
45115;DHT22;30877;43.706;10.780;2022-11-20T08:18:24;10.30;96.70
45115;DHT22;30877;43.706;10.780;2022-11-20T08:21:02;10.30;96.70
45115;DHT22;30877;43.706;10.780;2022-11-20T08:23:31;10.20;96.70
45115;DHT22;30877;43.706;10.780;2022-11-20T08:26:00;10.30;96.70
45115;DHT22;30877;43.706;10.780;2022-11-20T08:28:28;10.30;96.70
45115;DHT22;30877;43.706;10.780;2022-11-20T08:30:58;10.40;96.70
45115;DHT22;30877;43.706;10.780;2022-11-20T08:33:27;10.50;96.70
45115;DHT22;30877;43.706;10.780;2022-11-20T08:35:59;10.60;96.70
45115;DHT22;30877;43.706;10.780;2022-11-20T08:38:27;10.70;96.70
45115;DHT22;30877;43.706;10.780;2022-11-20T08:40:57;10.80;96.70
45115;DHT22;30877;43.706;10.780;2022-11-20T08:43:45;10.90;96.70
45115;DHT22;30877;43.706;10.780;2022-11-20T08:46:13;10.90;96.70
45115;DHT22;30877;43.706;10.780;2022-11-20T08:48:41;11.00;96.70
45115;DHT22;30877;43.706;10.780;2022-11-20T08:51:10;11.00;96.70
45115;DHT22;30877;43.706;10.780;2022-11-20T08:53:38;11.10;96.70
45115;DHT22;30877;43.706;10.780;2022-11-20T08:56:06;11.20;96.70
45115;DHT22;30877;43.706;10.780;2022-11-20T08:58:34;11.30;96.70
45115;DHT22;30877;43.706;10.780;2022-11-20T09:01:24;11.30;96.70
45115;DHT22;30877;43.706;10.780;2022-11-20T09:03:52;11.40;96.70
45115;DHT22;30877;43.706;10.780;2022-11-20T09:06:22;11.50;96.70
45115;DHT22;30877;43.706;10.780;2022-11-20T09:08:52;11.60;96.70
45115;DHT22;30877;43.706;10.780;2022-11-20T09:11:20;11.60;96.70
45115;DHT22;30877;43.706;10.780;2022-11-20T09:13:48;11.60;96.70
45115;DHT22;30877;43.706;10.780;2022-11-20T09:16:16;11.80;96.70
45115;DHT22;30877;43.706;10.780;2022-11-20T09:18:45;11.70;96.70
45115;DHT22;30877;43.706;10.780;2022-11-20T09:21:13;11.80;96.70
45115;DHT22;30877;43.706;10.780;2022-11-20T09:23:41;12.00;96.70
45115;DHT22;30877;43.706;10.780;2022-11-20T09:26:12;12.10;96.70
45115;DHT22;30877;43.706;10.780;2022-11-20T09:28:40;12.20;96.70
45115;DHT22;30877;43.706;10.780;2022-11-20T09:31:11;12.30;96.70
45115;DHT22;30877;43.706;10.780;2022-11-20T09:33:42;12.30;96.70
45115;DHT22;30877;43.706;10.780;2022-11-20T09:36:11;12.40;96.70
45115;DHT22;30877;43.706;10.780;2022-11-20T09:38:39;12.50;96.70
45115;DHT22;30877;43.706;10.780;2022-11-20T09:41:28;12.60;96.70
45115;DHT22;30877;43.706;10.780;2022-11-20T09:44:04;12.50;96.70
45115;DHT22;30877;43.706;10.780;2022-11-20T09:46:36;12.70;96.70
45115;DHT22;30877;43.706;10.780;2022-11-20T09:49:23;12.70;96.70
45115;DHT22;30877;43.706;10.780;2022-11-20T09:52:16;12.80;96.70
45115;DHT22;30877;43.706;10.780;2022-11-20T09:54:47;12.80;96.70
45115;DHT22;30877;43.706;10.780;2022-11-20T09:57:20;12.90;96.70
45115;DHT22;30877;43.706;10.780;2022-11-20T09:59:52;13.00;96.70
45115;DHT22;30877;43.706;10.780;2022-11-20T10:02:28;13.20;96.70
45115;DHT22;30877;43.706;10.780;2022-11-20T10:05:00;13.20;96.70
45115;DHT22;30877;43.706;10.780;2022-11-20T10:07:37;13.30;96.70
45115;DHT22;30877;43.706;10.780;2022-11-20T10:10:15;13.50;96.70
45115;DHT22;30877;43.706;10.780;2022-11-20T10:13:00;13.60;96.70
45115;DHT22;30877;43.706;10.780;2022-11-20T10:15:43;13.90;96.70
45115;DHT22;30877;43.706;10.780;2022-11-20T10:18:23;14.00;96.70
45115;DHT22;30877;43.706;10.780;2022-11-20T10:21:05;14.10;96.70
45115;DHT22;30877;43.706;10.780;2022-11-20T10:23:52;14.10;96.70
45115;DHT22;30877;43.706;10.780;2022-11-20T10:26:31;14.20;96.70
45115;DHT22;30877;43.706;10.780;2022-11-20T10:29:10;14.30;96.70
45115;DHT22;30877;43.706;10.780;2022-11-20T10:31:40;14.40;96.70
45115;DHT22;30877;43.706;10.780;2022-11-20T10:34:18;14.50;96.70
45115;DHT22;30877;43.706;10.780;2022-11-20T10:36:54;14.60;96.70
45115;DHT22;30877;43.706;10.780;2022-11-20T10:39:32;14.60;96.70
45115;DHT22;30877;43.706;10.780;2022-11-20T10:42:02;14.70;96.70
45115;DHT22;30877;43.706;10.780;2022-11-20T10:44:30;14.80;96.70
45115;DHT22;30877;43.706;10.780;2022-11-20T10:47:25;14.80;96.70
45115;DHT22;30877;43.706;10.780;2022-11-20T10:49:56;14.90;96.70
45115;DHT22;30877;43.706;10.780;2022-11-20T10:52:32;15.10;96.70
45115;DHT22;30877;43.706;10.780;2022-11-20T10:55:16;15.20;96.70
45115;DHT22;30877;43.706;10.780;2022-11-20T10:57:53;15.20;96.70
45115;DHT22;30877;43.706;10.780;2022-11-20T11:00:23;15.10;96.70
45115;DHT22;30877;43.706;10.780;2022-11-20T11:02:52;15.20;96.70
45115;DHT22;30877;43.706;10.780;2022-11-20T11:05:29;15.30;96.70
45115;DHT22;30877;43.706;10.780;2022-11-20T11:08:00;15.40;96.70
45115;DHT22;30877;43.706;10.780;2022-11-20T11:10:36;15.50;96.70
45115;DHT22;30877;43.706;10.780;2022-11-20T11:13:05;15.50;96.70
45115;DHT22;30877;43.706;10.780;2022-11-20T11:15:38;15.70;96.70
45115;DHT22;30877;43.706;10.780;2022-11-20T11:18:09;15.90;96.70
45115;DHT22;30877;43.706;10.780;2022-11-20T11:20:38;15.90;96.70
45115;DHT22;30877;43.706;10.780;2022-11-20T11:23:28;16.10;96.70
45115;DHT22;30877;43.706;10.780;2022-11-20T11:25:59;16.30;96.70
45115;DHT22;30877;43.706;10.780;2022-11-20T11:28:28;16.30;96.70
45115;DHT22;30877;43.706;10.780;2022-11-20T11:30:56;16.40;96.70
45115;DHT22;30877;43.706;10.780;2022-11-20T11:33:26;16.50;96.70
45115;DHT22;30877;43.706;10.780;2022-11-20T11:35:55;16.70;96.70
45115;DHT22;30877;43.706;10.780;2022-11-20T11:38:30;16.70;96.70
45115;DHT22;30877;43.706;10.780;2022-11-20T11:41:01;16.80;96.70
45115;DHT22;30877;43.706;10.780;2022-11-20T11:43:32;16.80;96.70
45115;DHT22;30877;43.706;10.780;2022-11-20T11:46:27;16.80;96.70
45115;DHT22;30877;43.706;10.780;2022-11-20T11:49:01;17.00;96.70
45115;DHT22;30877;43.706;10.780;2022-11-20T11:51:34;17.00;96.70
45115;DHT22;30877;43.706;10.780;2022-11-20T11:54:15;17.10;96.70
45115;DHT22;30877;43.706;10.780;2022-11-20T11:56:46;17.10;96.70
45115;DHT22;30877;43.706;10.780;2022-11-20T11:59:20;17.20;96.70
45115;DHT22;30877;43.706;10.780;2022-11-20T12:01:54;17.40;96.70
45115;DHT22;30877;43.706;10.780;2022-11-20T12:04:38;17.50;96.70
45115;DHT22;30877;43.706;10.780;2022-11-20T12:07:11;17.60;96.70
45115;DHT22;30877;43.706;10.780;2022-11-20T12:10:02;17.70;96.70
45115;DHT22;30877;43.706;10.780;2022-11-20T12:12:36;17.80;96.70
45115;DHT22;30877;43.706;10.780;2022-11-20T12:15:11;17.70;96.70
45115;DHT22;30877;43.706;10.780;2022-11-20T12:17:39;17.70;96.70
45115;DHT22;30877;43.706;10.780;2022-11-20T12:20:12;17.80;96.70
45115;DHT22;30877;43.706;10.780;2022-11-20T12:22:47;17.90;96.70
45115;DHT22;30877;43.706;10.780;2022-11-20T12:25:21;18.00;96.70
45115;DHT22;30877;43.706;10.780;2022-11-20T12:28:20;18.10;96.70
45115;DHT22;30877;43.706;10.780;2022-11-20T12:33:54;18.00;96.70
45115;DHT22;30877;43.706;10.780;2022-11-20T12:36:30;18.00;96.70
45115;DHT22;30877;43.706;10.780;2022-11-20T12:39:17;18.10;96.70
45115;DHT22;30877;43.706;10.780;2022-11-20T12:41:55;18.20;96.70
45115;DHT22;30877;43.706;10.780;2022-11-20T12:47:48;18.40;96.70
45115;DHT22;30877;43.706;10.780;2022-11-20T12:50:25;18.40;96.70
45115;DHT22;30877;43.706;10.780;2022-11-20T12:53:04;18.40;96.70
45115;DHT22;30877;43.706;10.780;2022-11-20T12:55:48;18.40;96.70
45115;DHT22;30877;43.706;10.780;2022-11-20T12:58:25;18.50;96.70
45115;DHT22;30877;43.706;10.780;2022-11-20T13:01:03;18.60;96.70
45115;DHT22;30877;43.706;10.780;2022-11-20T13:03:43;18.50;96.70
45115;DHT22;30877;43.706;10.780;2022-11-20T13:06:14;18.40;96.70
45115;DHT22;30877;43.706;10.780;2022-11-20T13:08:48;18.40;96.70
45115;DHT22;30877;43.706;10.780;2022-11-20T13:11:23;18.50;96.70
45115;DHT22;30877;43.706;10.780;2022-11-20T13:14:09;18.60;96.70
45115;DHT22;30877;43.706;10.780;2022-11-20T13:16:46;18.70;96.70
45115;DHT22;30877;43.706;10.780;2022-11-20T13:19:17;18.70;96.70
45115;DHT22;30877;43.706;10.780;2022-11-20T13:21:46;18.80;96.70
45115;DHT22;30877;43.706;10.780;2022-11-20T13:24:25;18.60;96.70
45115;DHT22;30877;43.706;10.780;2022-11-20T13:27:02;18.60;96.70
45115;DHT22;30877;43.706;10.780;2022-11-20T13:29:31;18.50;96.70
45115;DHT22;30877;43.706;10.780;2022-11-20T13:32:13;18.40;96.70
45115;DHT22;30877;43.706;10.780;2022-11-20T13:34:52;18.50;96.70
45115;DHT22;30877;43.706;10.780;2022-11-20T13:37:29;18.50;96.70
45115;DHT22;30877;43.706;10.780;2022-11-20T13:40:20;18.30;96.70
45115;DHT22;30877;43.706;10.780;2022-11-20T13:42:56;18.10;96.70
45115;DHT22;30877;43.706;10.780;2022-11-20T13:45:27;17.80;96.70
45115;DHT22;30877;43.706;10.780;2022-11-20T13:47:57;17.80;96.70
45115;DHT22;30877;43.706;10.780;2022-11-20T13:50:40;17.80;96.70
45115;DHT22;30877;43.706;10.780;2022-11-20T13:53:32;17.70;96.70
45115;DHT22;30877;43.706;10.780;2022-11-20T13:56:05;17.50;96.70
45115;DHT22;30877;43.706;10.780;2022-11-20T13:58:46;17.40;96.70
45115;DHT22;30877;43.706;10.780;2022-11-20T14:01:20;17.30;96.70
45115;DHT22;30877;43.706;10.780;2022-11-20T14:03:51;17.20;96.70
45115;DHT22;30877;43.706;10.780;2022-11-20T14:06:41;17.10;96.70
45115;DHT22;30877;43.706;10.780;2022-11-20T14:09:12;17.00;96.70
45115;DHT22;30877;43.706;10.780;2022-11-20T14:11:46;16.90;96.70
45115;DHT22;30877;43.706;10.780;2022-11-20T14:14:17;17.00;96.70
45115;DHT22;30877;43.706;10.780;2022-11-20T14:16:48;16.90;96.70
45115;DHT22;30877;43.706;10.780;2022-11-20T14:19:30;16.80;96.70
45115;DHT22;30877;43.706;10.780;2022-11-20T14:22:10;16.70;96.70
45115;DHT22;30877;43.706;10.780;2022-11-20T14:24:45;16.60;96.70
45115;DHT22;30877;43.706;10.780;2022-11-20T14:27:15;16.70;96.70
45115;DHT22;30877;43.706;10.780;2022-11-20T14:29:45;16.60;96.70
45115;DHT22;30877;43.706;10.780;2022-11-20T14:32:16;16.50;96.70
45115;DHT22;30877;43.706;10.780;2022-11-20T14:34:48;16.40;96.70
45115;DHT22;30877;43.706;10.780;2022-11-20T14:37:21;16.40;96.70
45115;DHT22;30877;43.706;10.780;2022-11-20T14:39:52;16.40;96.70
45115;DHT22;30877;43.706;10.780;2022-11-20T14:42:22;16.30;96.70
45115;DHT22;30877;43.706;10.780;2022-11-20T14:44:55;16.40;96.70
45115;DHT22;30877;43.706;10.780;2022-11-20T14:47:25;16.40;96.70
45115;DHT22;30877;43.706;10.780;2022-11-20T14:49:56;16.40;96.70
45115;DHT22;30877;43.706;10.780;2022-11-20T14:52:26;16.40;96.70
45115;DHT22;30877;43.706;10.780;2022-11-20T14:54:57;16.50;96.70
45115;DHT22;30877;43.706;10.780;2022-11-20T14:57:29;16.30;96.70
45115;DHT22;30877;43.706;10.780;2022-11-20T15:00:06;16.40;96.70
45115;DHT22;30877;43.706;10.780;2022-11-20T15:02:40;16.40;96.70
45115;DHT22;30877;43.706;10.780;2022-11-20T15:05:10;16.40;96.70
45115;DHT22;30877;43.706;10.780;2022-11-20T15:07:41;16.30;96.70
45115;DHT22;30877;43.706;10.780;2022-11-20T15:10:20;16.30;96.70
45115;DHT22;30877;43.706;10.780;2022-11-20T15:12:51;16.30;96.70
45115;DHT22;30877;43.706;10.780;2022-11-20T15:15:23;16.30;96.70
45115;DHT22;30877;43.706;10.780;2022-11-20T15:17:52;16.70;96.70
45115;DHT22;30877;43.706;10.780;2022-11-20T15:20:26;17.60;96.70
45115;DHT22;30877;43.706;10.780;2022-11-20T15:22:55;18.10;96.70
45115;DHT22;30877;43.706;10.780;2022-11-20T15:25:24;17.80;96.70
45115;DHT22;30877;43.706;10.780;2022-11-20T15:27:55;17.70;96.70
45115;DHT22;30877;43.706;10.780;2022-11-20T15:30:24;17.80;96.70
45115;DHT22;30877;43.706;10.780;2022-11-20T15:32:52;18.20;96.70
45115;DHT22;30877;43.706;10.780;2022-11-20T15:35:22;18.40;96.70
45115;DHT22;30877;43.706;10.780;2022-11-20T15:37:50;17.70;96.70
45115;DHT22;30877;43.706;10.780;2022-11-20T15:40:18;17.10;96.70
45115;DHT22;30877;43.706;10.780;2022-11-20T15:42:46;16.80;96.70
45115;DHT22;30877;43.706;10.780;2022-11-20T15:45:43;16.50;96.70
45115;DHT22;30877;43.706;10.780;2022-11-20T15:48:14;16.30;96.70
45115;DHT22;30877;43.706;10.780;2022-11-20T15:50:50;16.10;96.70
45115;DHT22;30877;43.706;10.780;2022-11-20T15:53:20;16.00;96.70